Tropical Cyclones
[Index]
Main Index Home Page Stock Weather Photos Extreme Storms Discussion Storm News and Storm Chasing Reports Tropical Cyclones / Hurricanes / Typhoons Weather Data and Links Wild Fires / Bushfires Weather Observation Techniques Weather Picture Catalogue Tornado Pictures and Reports Stock Video Footage and DVDs for sale
Season 2016-2017 Tropical Cyclone ERNIE Track Map
Season 2016-2017 Summaries (Operational Data): [AU] [SIO] [SPAC] [SH]
<<- Previous TC | 2016-2017 Season | Next TC ->>

click for intensity scale information  Lat/long Grid: Show Hide

 Date Labels: Show Hide

Operational Tropical Cyclone Data : JTWC Advisories

Name: ERNIE
Number: 1715

04 Apr 2017 18:00 UTC to 11 Apr 2017 18:00 UTC

    date/time    lat    long     hPa   cat  kts
2017-04-04 18   11.4   114.7    1010         15          
2017-04-05 00   11.6   113.4    1010         15          
2017-04-05 06   11.9   112.3    1010         15          
2017-04-05 12   12.2   111.6    1004         25          
2017-04-05 18   12.5   111.2    1004         25          
2017-04-06 00   12.9   111.0    1000         30          
2017-04-06 06   13.3   110.8    1002    1    35          
2017-04-06 12   13.8   110.7    1001    1    35          
2017-04-06 18   14.5   110.5     998    1    40          
2017-04-07 00   14.9   110.4     986    3    65          
2017-04-07 06   15.4   110.3     963    4    95          
2017-04-07 12   15.8   110.4     954    4   105          
2017-04-07 18   15.9   110.4     930    5   130          
2017-04-08 00   16.2   110.3     941    5   110          
2017-04-08 06   16.6   110.0     963    4    95          
2017-04-08 12   16.7   109.5     956    4    90          
2017-04-08 18   16.8   108.9     969    4    90          
2017-04-09 00   17.0   108.3     966    4    95          
2017-04-09 06   17.4   107.6     959    3    85          
2017-04-09 12   17.8   106.5     970    3    70          
2017-04-09 18   18.0   105.3     994    2    55          
2017-04-10 00   18.2   104.2    1001    1    45          
2017-04-10 06   18.7   103.0     993    1    40          
2017-04-10 12   19.2   101.8     996    1    35          
2017-04-10 18   19.7   100.8    1004         30          
2017-04-11 00   20.0   100.1    1000         30          
2017-04-11 06   20.8    99.4    1000         30          
2017-04-11 12   22.1    98.8    1004         25          
2017-04-11 18   21.8    98.3                             
Winds are 10-min average.

Tropical cyclone tracks developed by Michael Bath using operational warnings and advisories and Google Maps.


[Australian Severe Weather index] [Copyright Notice] [Email Contacts] [Search This Site] [Privacy Policy]
Document: tropical_cyclone_ernie.htm Updated: 4 July 2017